sensor_id;sensor_type;location;lat;lon;timestamp;P1;durP1;ratioP1;P2;durP2;ratioP2
75689;SDS011;64303;53.118;9.044;2023-02-08T00:01:59;26.77;;;19.00;;
75689;SDS011;64303;53.118;9.044;2023-02-08T00:04:25;27.58;;;19.17;;
75689;SDS011;64303;53.118;9.044;2023-02-08T00:06:52;22.65;;;16.75;;
75689;SDS011;64303;53.118;9.044;2023-02-08T00:09:18;21.63;;;18.42;;
75689;SDS011;64303;53.118;9.044;2023-02-08T00:11:45;23.20;;;20.75;;
75689;SDS011;64303;53.118;9.044;2023-02-08T00:14:13;24.70;;;18.00;;
75689;SDS011;64303;53.118;9.044;2023-02-08T00:16:40;19.60;;;13.50;;
75689;SDS011;64303;53.118;9.044;2023-02-08T00:19:06;23.25;;;15.35;;
75689;SDS011;64303;53.118;9.044;2023-02-08T00:21:33;23.05;;;16.67;;
75689;SDS011;64303;53.118;9.044;2023-02-08T00:24:00;25.15;;;22.70;;
75689;SDS011;64303;53.118;9.044;2023-02-08T00:26:26;20.90;;;17.15;;
75689;SDS011;64303;53.118;9.044;2023-02-08T00:28:53;23.30;;;15.55;;
75689;SDS011;64303;53.118;9.044;2023-02-08T00:31:21;22.70;;;17.17;;
75689;SDS011;64303;53.118;9.044;2023-02-08T00:33:48;19.08;;;16.77;;
75689;SDS011;64303;53.118;9.044;2023-02-08T00:36:14;22.50;;;18.20;;
75689;SDS011;64303;53.118;9.044;2023-02-08T00:38:41;25.85;;;19.00;;
75689;SDS011;64303;53.118;9.044;2023-02-08T00:41:08;25.15;;;16.67;;
75689;SDS011;64303;53.118;9.044;2023-02-08T00:43:34;23.17;;;19.55;;
75689;SDS011;64303;53.118;9.044;2023-02-08T00:46:01;22.75;;;17.98;;
75689;SDS011;64303;53.118;9.044;2023-02-08T00:48:29;24.48;;;17.48;;
75689;SDS011;64303;53.118;9.044;2023-02-08T00:50:58;23.45;;;18.73;;
75689;SDS011;64303;53.118;9.044;2023-02-08T00:53:25;26.92;;;18.58;;
75689;SDS011;64303;53.118;9.044;2023-02-08T00:55:52;29.27;;;17.50;;
75689;SDS011;64303;53.118;9.044;2023-02-08T00:58:20;22.13;;;17.67;;
75689;SDS011;64303;53.118;9.044;2023-02-08T01:00:48;25.83;;;18.30;;
75689;SDS011;64303;53.118;9.044;2023-02-08T01:05:44;23.90;;;17.58;;
75689;SDS011;64303;53.118;9.044;2023-02-08T01:08:10;21.35;;;17.80;;
75689;SDS011;64303;53.118;9.044;2023-02-08T01:10:37;23.27;;;15.23;;
75689;SDS011;64303;53.118;9.044;2023-02-08T01:13:04;26.08;;;17.88;;
75689;SDS011;64303;53.118;9.044;2023-02-08T01:15:30;25.48;;;17.13;;
75689;SDS011;64303;53.118;9.044;2023-02-08T01:17:57;25.05;;;15.95;;
75689;SDS011;64303;53.118;9.044;2023-02-08T01:20:24;22.67;;;19.65;;
75689;SDS011;64303;53.118;9.044;2023-02-08T01:22:52;26.27;;;18.23;;
75689;SDS011;64303;53.118;9.044;2023-02-08T01:25:19;25.83;;;19.95;;
75689;SDS011;64303;53.118;9.044;2023-02-08T01:27:45;23.92;;;20.85;;
75689;SDS011;64303;53.118;9.044;2023-02-08T01:30:12;24.90;;;15.77;;
75689;SDS011;64303;53.118;9.044;2023-02-08T01:32:39;20.70;;;15.32;;
75689;SDS011;64303;53.118;9.044;2023-02-08T01:35:06;20.80;;;14.82;;
75689;SDS011;64303;53.118;9.044;2023-02-08T01:37:33;18.98;;;14.30;;
75689;SDS011;64303;53.118;9.044;2023-02-08T01:40:01;21.25;;;17.60;;
75689;SDS011;64303;53.118;9.044;2023-02-08T01:42:28;22.58;;;16.38;;
75689;SDS011;64303;53.118;9.044;2023-02-08T01:47:55;22.00;;;15.45;;
75689;SDS011;64303;53.118;9.044;2023-02-08T01:50:25;22.30;;;15.93;;
75689;SDS011;64303;53.118;9.044;2023-02-08T01:52:55;23.27;;;20.20;;
75689;SDS011;64303;53.118;9.044;2023-02-08T01:55:24;21.98;;;15.80;;
75689;SDS011;64303;53.118;9.044;2023-02-08T01:57:53;20.10;;;16.98;;
75689;SDS011;64303;53.118;9.044;2023-02-08T02:00:21;20.95;;;15.88;;
75689;SDS011;64303;53.118;9.044;2023-02-08T02:02:49;25.75;;;17.35;;
75689;SDS011;64303;53.118;9.044;2023-02-08T02:05:19;21.98;;;17.08;;
75689;SDS011;64303;53.118;9.044;2023-02-08T02:07:46;22.13;;;17.67;;
75689;SDS011;64303;53.118;9.044;2023-02-08T02:10:15;17.95;;;12.98;;
75689;SDS011;64303;53.118;9.044;2023-02-08T02:12:46;26.15;;;17.02;;
75689;SDS011;64303;53.118;9.044;2023-02-08T02:15:13;20.63;;;18.38;;
75689;SDS011;64303;53.118;9.044;2023-02-08T02:17:39;21.63;;;16.10;;
75689;SDS011;64303;53.118;9.044;2023-02-08T02:20:09;19.33;;;15.75;;
75689;SDS011;64303;53.118;9.044;2023-02-08T02:22:48;20.50;;;14.95;;
75689;SDS011;64303;53.118;9.044;2023-02-08T02:25:43;22.70;;;20.55;;
75689;SDS011;64303;53.118;9.044;2023-02-08T02:28:25;20.45;;;15.85;;
75689;SDS011;64303;53.118;9.044;2023-02-08T02:34:01;19.88;;;14.43;;
75689;SDS011;64303;53.118;9.044;2023-02-08T02:36:32;19.90;;;16.77;;
75689;SDS011;64303;53.118;9.044;2023-02-08T02:39:08;24.45;;;19.92;;
75689;SDS011;64303;53.118;9.044;2023-02-08T02:41:44;20.27;;;16.73;;
75689;SDS011;64303;53.118;9.044;2023-02-08T02:44:34;24.02;;;16.63;;
75689;SDS011;64303;53.118;9.044;2023-02-08T02:47:06;21.95;;;16.98;;
75689;SDS011;64303;53.118;9.044;2023-02-08T02:49:35;20.95;;;16.95;;
75689;SDS011;64303;53.118;9.044;2023-02-08T02:52:05;17.25;;;14.55;;
75689;SDS011;64303;53.118;9.044;2023-02-08T02:54:34;18.70;;;15.35;;
75689;SDS011;64303;53.118;9.044;2023-02-08T02:57:05;25.45;;;15.85;;
75689;SDS011;64303;53.118;9.044;2023-02-08T02:59:33;25.25;;;15.98;;
75689;SDS011;64303;53.118;9.044;2023-02-08T03:07:36;20.27;;;14.68;;
75689;SDS011;64303;53.118;9.044;2023-02-08T03:10:14;21.05;;;15.48;;
75689;SDS011;64303;53.118;9.044;2023-02-08T03:12:52;18.08;;;16.10;;
75689;SDS011;64303;53.118;9.044;2023-02-08T03:15:22;20.35;;;15.82;;
75689;SDS011;64303;53.118;9.044;2023-02-08T03:17:59;17.20;;;13.15;;
75689;SDS011;64303;53.118;9.044;2023-02-08T03:20:33;15.80;;;13.88;;
75689;SDS011;64303;53.118;9.044;2023-02-08T03:23:06;21.20;;;19.05;;
75689;SDS011;64303;53.118;9.044;2023-02-08T03:25:35;23.95;;;16.30;;
75689;SDS011;64303;53.118;9.044;2023-02-08T03:28:11;21.83;;;18.20;;
75689;SDS011;64303;53.118;9.044;2023-02-08T03:30:44;24.10;;;21.02;;
75689;SDS011;64303;53.118;9.044;2023-02-08T03:33:16;23.95;;;21.00;;
75689;SDS011;64303;53.118;9.044;2023-02-08T03:35:51;23.17;;;19.63;;
75689;SDS011;64303;53.118;9.044;2023-02-08T03:38:22;23.45;;;16.77;;
75689;SDS011;64303;53.118;9.044;2023-02-08T03:40:52;22.70;;;16.30;;
75689;SDS011;64303;53.118;9.044;2023-02-08T03:43:20;26.77;;;17.15;;
75689;SDS011;64303;53.118;9.044;2023-02-08T03:45:51;28.50;;;17.23;;
75689;SDS011;64303;53.118;9.044;2023-02-08T03:48:20;21.80;;;14.75;;
75689;SDS011;64303;53.118;9.044;2023-02-08T03:50:50;20.98;;;15.75;;
75689;SDS011;64303;53.118;9.044;2023-02-08T03:53:19;23.00;;;18.67;;
75689;SDS011;64303;53.118;9.044;2023-02-08T03:55:47;22.00;;;14.43;;
75689;SDS011;64303;53.118;9.044;2023-02-08T03:58:17;19.67;;;15.48;;
75689;SDS011;64303;53.118;9.044;2023-02-08T04:00:49;23.48;;;20.98;;
75689;SDS011;64303;53.118;9.044;2023-02-08T04:03:18;21.85;;;15.65;;
75689;SDS011;64303;53.118;9.044;2023-02-08T04:05:46;21.20;;;13.93;;
75689;SDS011;64303;53.118;9.044;2023-02-08T04:08:14;20.30;;;14.57;;
75689;SDS011;64303;53.118;9.044;2023-02-08T04:10:41;20.88;;;15.68;;
75689;SDS011;64303;53.118;9.044;2023-02-08T04:13:08;22.42;;;18.60;;
75689;SDS011;64303;53.118;9.044;2023-02-08T04:15:34;26.33;;;17.50;;
75689;SDS011;64303;53.118;9.044;2023-02-08T04:18:01;25.75;;;17.40;;
75689;SDS011;64303;53.118;9.044;2023-02-08T04:20:27;23.88;;;16.95;;
75689;SDS011;64303;53.118;9.044;2023-02-08T04:22:54;25.67;;;19.02;;
75689;SDS011;64303;53.118;9.044;2023-02-08T04:25:22;24.45;;;19.17;;
75689;SDS011;64303;53.118;9.044;2023-02-08T04:27:49;25.40;;;19.42;;
75689;SDS011;64303;53.118;9.044;2023-02-08T04:30:15;27.00;;;19.52;;
75689;SDS011;64303;53.118;9.044;2023-02-08T04:32:42;26.75;;;19.33;;
75689;SDS011;64303;53.118;9.044;2023-02-08T04:35:09;22.20;;;16.35;;
75689;SDS011;64303;53.118;9.044;2023-02-08T04:37:36;22.88;;;16.08;;
75689;SDS011;64303;53.118;9.044;2023-02-08T04:40:02;26.30;;;19.08;;
75689;SDS011;64303;53.118;9.044;2023-02-08T04:42:31;26.02;;;16.67;;
75689;SDS011;64303;53.118;9.044;2023-02-08T04:44:57;25.48;;;19.10;;
75689;SDS011;64303;53.118;9.044;2023-02-08T04:47:24;26.83;;;20.75;;
75689;SDS011;64303;53.118;9.044;2023-02-08T04:49:51;26.38;;;16.92;;
75689;SDS011;64303;53.118;9.044;2023-02-08T04:52:17;26.95;;;19.10;;
75689;SDS011;64303;53.118;9.044;2023-02-08T04:54:44;25.05;;;16.52;;
75689;SDS011;64303;53.118;9.044;2023-02-08T04:57:11;23.92;;;15.70;;
75689;SDS011;64303;53.118;9.044;2023-02-08T04:59:39;24.73;;;18.63;;
75689;SDS011;64303;53.118;9.044;2023-02-08T05:02:06;29.20;;;17.10;;
75689;SDS011;64303;53.118;9.044;2023-02-08T05:04:33;27.42;;;21.63;;
75689;SDS011;64303;53.118;9.044;2023-02-08T05:06:59;22.85;;;16.30;;
75689;SDS011;64303;53.118;9.044;2023-02-08T05:09:26;22.70;;;16.40;;
75689;SDS011;64303;53.118;9.044;2023-02-08T05:11:53;28.13;;;18.77;;
75689;SDS011;64303;53.118;9.044;2023-02-08T05:14:19;27.05;;;17.33;;
75689;SDS011;64303;53.118;9.044;2023-02-08T05:16:47;25.55;;;16.55;;
75689;SDS011;64303;53.118;9.044;2023-02-08T05:19:14;29.17;;;19.23;;
75689;SDS011;64303;53.118;9.044;2023-02-08T05:21:41;25.92;;;19.20;;
75689;SDS011;64303;53.118;9.044;2023-02-08T05:24:07;22.33;;;15.68;;
75689;SDS011;64303;53.118;9.044;2023-02-08T05:26:37;30.60;;;19.17;;
75689;SDS011;64303;53.118;9.044;2023-02-08T05:29:03;21.80;;;18.98;;
75689;SDS011;64303;53.118;9.044;2023-02-08T05:31:30;32.65;;;20.63;;
75689;SDS011;64303;53.118;9.044;2023-02-08T05:33:58;35.20;;;20.73;;
75689;SDS011;64303;53.118;9.044;2023-02-08T05:36:25;32.70;;;22.38;;
75689;SDS011;64303;53.118;9.044;2023-02-08T05:38:52;23.50;;;20.63;;
75689;SDS011;64303;53.118;9.044;2023-02-08T05:41:18;25.98;;;19.42;;
75689;SDS011;64303;53.118;9.044;2023-02-08T05:43:45;29.58;;;20.25;;
75689;SDS011;64303;53.118;9.044;2023-02-08T05:46:12;29.23;;;17.33;;
75689;SDS011;64303;53.118;9.044;2023-02-08T05:48:39;25.70;;;19.25;;
75689;SDS011;64303;53.118;9.044;2023-02-08T05:51:07;35.03;;;18.08;;
75689;SDS011;64303;53.118;9.044;2023-02-08T05:53:34;35.95;;;20.85;;
75689;SDS011;64303;53.118;9.044;2023-02-08T05:56:01;46.28;;;26.30;;
75689;SDS011;64303;53.118;9.044;2023-02-08T05:58:27;29.85;;;23.52;;
75689;SDS011;64303;53.118;9.044;2023-02-08T06:00:54;29.85;;;19.73;;
75689;SDS011;64303;53.118;9.044;2023-02-08T06:03:21;28.17;;;17.63;;
75689;SDS011;64303;53.118;9.044;2023-02-08T06:05:48;28.90;;;18.00;;
75689;SDS011;64303;53.118;9.044;2023-02-08T06:08:16;28.45;;;17.27;;
75689;SDS011;64303;53.118;9.044;2023-02-08T06:10:42;26.83;;;19.15;;
75689;SDS011;64303;53.118;9.044;2023-02-08T06:13:10;30.63;;;17.48;;
75689;SDS011;64303;53.118;9.044;2023-02-08T06:15:36;27.27;;;18.48;;
75689;SDS011;64303;53.118;9.044;2023-02-08T06:18:03;30.67;;;23.02;;
75689;SDS011;64303;53.118;9.044;2023-02-08T06:20:30;26.63;;;18.85;;
75689;SDS011;64303;53.118;9.044;2023-02-08T06:22:56;24.27;;;18.08;;
75689;SDS011;64303;53.118;9.044;2023-02-08T06:25:24;28.30;;;19.25;;
75689;SDS011;64303;53.118;9.044;2023-02-08T06:27:51;30.33;;;22.35;;
75689;SDS011;64303;53.118;9.044;2023-02-08T06:30:18;24.27;;;19.42;;
75689;SDS011;64303;53.118;9.044;2023-02-08T06:32:44;26.52;;;18.15;;
75689;SDS011;64303;53.118;9.044;2023-02-08T06:35:11;31.40;;;20.52;;
75689;SDS011;64303;53.118;9.044;2023-02-08T06:37:38;32.58;;;19.17;;
75689;SDS011;64303;53.118;9.044;2023-02-08T06:40:06;30.48;;;21.10;;
75689;SDS011;64303;53.118;9.044;2023-02-08T06:42:34;27.10;;;21.08;;
75689;SDS011;64303;53.118;9.044;2023-02-08T06:45:01;29.33;;;22.05;;
75689;SDS011;64303;53.118;9.044;2023-02-08T06:47:27;29.15;;;17.15;;
75689;SDS011;64303;53.118;9.044;2023-02-08T06:49:55;33.13;;;19.67;;
75689;SDS011;64303;53.118;9.044;2023-02-08T06:52:21;29.17;;;20.40;;
75689;SDS011;64303;53.118;9.044;2023-02-08T06:54:48;29.13;;;24.10;;
75689;SDS011;64303;53.118;9.044;2023-02-08T06:57:15;26.65;;;19.65;;
75689;SDS011;64303;53.118;9.044;2023-02-08T06:59:43;32.78;;;19.20;;
75689;SDS011;64303;53.118;9.044;2023-02-08T07:02:11;30.80;;;17.67;;
75689;SDS011;64303;53.118;9.044;2023-02-08T07:07:05;30.48;;;19.02;;
75689;SDS011;64303;53.118;9.044;2023-02-08T07:09:32;31.88;;;20.80;;
75689;SDS011;64303;53.118;9.044;2023-02-08T07:11:59;30.92;;;20.25;;
75689;SDS011;64303;53.118;9.044;2023-02-08T07:14:29;29.90;;;22.23;;
75689;SDS011;64303;53.118;9.044;2023-02-08T07:16:57;33.55;;;20.27;;
75689;SDS011;64303;53.118;9.044;2023-02-08T07:19:24;33.17;;;22.23;;
75689;SDS011;64303;53.118;9.044;2023-02-08T07:21:50;37.00;;;23.35;;
75689;SDS011;64303;53.118;9.044;2023-02-08T07:24:17;47.08;;;25.92;;
75689;SDS011;64303;53.118;9.044;2023-02-08T07:26:44;55.97;;;28.80;;
75689;SDS011;64303;53.118;9.044;2023-02-08T07:29:11;54.45;;;32.92;;
75689;SDS011;64303;53.118;9.044;2023-02-08T07:31:37;53.58;;;29.35;;
75689;SDS011;64303;53.118;9.044;2023-02-08T07:34:06;57.65;;;32.30;;
75689;SDS011;64303;53.118;9.044;2023-02-08T07:36:32;39.92;;;25.77;;
75689;SDS011;64303;53.118;9.044;2023-02-08T07:39:00;45.47;;;22.38;;
75689;SDS011;64303;53.118;9.044;2023-02-08T07:41:26;30.23;;;19.83;;
75689;SDS011;64303;53.118;9.044;2023-02-08T07:43:53;36.40;;;27.80;;
75689;SDS011;64303;53.118;9.044;2023-02-08T07:46:20;34.17;;;22.58;;
75689;SDS011;64303;53.118;9.044;2023-02-08T07:48:47;33.08;;;24.40;;
75689;SDS011;64303;53.118;9.044;2023-02-08T07:51:15;34.90;;;22.13;;
75689;SDS011;64303;53.118;9.044;2023-02-08T07:53:42;43.33;;;30.95;;
75689;SDS011;64303;53.118;9.044;2023-02-08T07:56:09;36.13;;;21.52;;
75689;SDS011;64303;53.118;9.044;2023-02-08T07:58:35;39.53;;;22.75;;
75689;SDS011;64303;53.118;9.044;2023-02-08T08:01:02;38.17;;;25.00;;
75689;SDS011;64303;53.118;9.044;2023-02-08T08:03:29;38.15;;;27.65;;
75689;SDS011;64303;53.118;9.044;2023-02-08T08:05:55;36.67;;;22.17;;
75689;SDS011;64303;53.118;9.044;2023-02-08T08:08:24;32.40;;;20.35;;
75689;SDS011;64303;53.118;9.044;2023-02-08T08:10:50;39.85;;;26.00;;
75689;SDS011;64303;53.118;9.044;2023-02-08T08:13:17;42.47;;;29.73;;
75689;SDS011;64303;53.118;9.044;2023-02-08T08:15:43;36.30;;;22.80;;
75689;SDS011;64303;53.118;9.044;2023-02-08T08:18:10;32.38;;;19.60;;
75689;SDS011;64303;53.118;9.044;2023-02-08T08:20:37;39.72;;;26.25;;
75689;SDS011;64303;53.118;9.044;2023-02-08T08:23:04;44.70;;;26.23;;
75689;SDS011;64303;53.118;9.044;2023-02-08T08:25:32;33.63;;;23.05;;
75689;SDS011;64303;53.118;9.044;2023-02-08T08:27:59;36.92;;;20.77;;
75689;SDS011;64303;53.118;9.044;2023-02-08T08:30:26;42.70;;;24.13;;
75689;SDS011;64303;53.118;9.044;2023-02-08T08:32:53;33.60;;;23.63;;
75689;SDS011;64303;53.118;9.044;2023-02-08T08:35:19;38.95;;;23.65;;
75689;SDS011;64303;53.118;9.044;2023-02-08T08:37:46;29.00;;;20.58;;
75689;SDS011;64303;53.118;9.044;2023-02-08T08:40:13;38.53;;;25.38;;
75689;SDS011;64303;53.118;9.044;2023-02-08T08:42:41;37.17;;;22.52;;
75689;SDS011;64303;53.118;9.044;2023-02-08T08:45:08;38.08;;;21.42;;
75689;SDS011;64303;53.118;9.044;2023-02-08T08:47:35;36.88;;;22.45;;
75689;SDS011;64303;53.118;9.044;2023-02-08T08:50:02;31.23;;;20.45;;
75689;SDS011;64303;53.118;9.044;2023-02-08T08:52:29;35.70;;;26.17;;
75689;SDS011;64303;53.118;9.044;2023-02-08T08:54:55;41.67;;;21.98;;
75689;SDS011;64303;53.118;9.044;2023-02-08T08:57:22;39.22;;;24.35;;
75689;SDS011;64303;53.118;9.044;2023-02-08T08:59:50;35.03;;;22.40;;
75689;SDS011;64303;53.118;9.044;2023-02-08T09:02:17;37.70;;;21.92;;
75689;SDS011;64303;53.118;9.044;2023-02-08T09:04:43;29.73;;;19.35;;
75689;SDS011;64303;53.118;9.044;2023-02-08T09:07:10;35.70;;;22.08;;
75689;SDS011;64303;53.118;9.044;2023-02-08T09:09:37;35.47;;;20.75;;
75689;SDS011;64303;53.118;9.044;2023-02-08T09:12:05;34.13;;;20.58;;
75689;SDS011;64303;53.118;9.044;2023-02-08T09:14:32;38.13;;;22.77;;
75689;SDS011;64303;53.118;9.044;2023-02-08T09:17:00;34.70;;;19.15;;
75689;SDS011;64303;53.118;9.044;2023-02-08T09:19:27;32.15;;;19.05;;
75689;SDS011;64303;53.118;9.044;2023-02-08T09:21:54;35.40;;;21.00;;
75689;SDS011;64303;53.118;9.044;2023-02-08T09:24:22;35.58;;;21.05;;
75689;SDS011;64303;53.118;9.044;2023-02-08T09:26:49;32.15;;;18.80;;
75689;SDS011;64303;53.118;9.044;2023-02-08T09:29:15;35.72;;;18.88;;
75689;SDS011;64303;53.118;9.044;2023-02-08T09:31:42;37.97;;;20.33;;
75689;SDS011;64303;53.118;9.044;2023-02-08T09:34:10;33.85;;;20.65;;
75689;SDS011;64303;53.118;9.044;2023-02-08T09:36:37;36.00;;;22.90;;
75689;SDS011;64303;53.118;9.044;2023-02-08T09:39:06;36.20;;;25.65;;
75689;SDS011;64303;53.118;9.044;2023-02-08T09:41:40;34.90;;;19.45;;
75689;SDS011;64303;53.118;9.044;2023-02-08T09:44:16;34.92;;;20.15;;
75689;SDS011;64303;53.118;9.044;2023-02-08T09:46:49;30.48;;;20.02;;
75689;SDS011;64303;53.118;9.044;2023-02-08T09:49:18;32.72;;;20.27;;
75689;SDS011;64303;53.118;9.044;2023-02-08T09:51:50;36.70;;;22.60;;
75689;SDS011;64303;53.118;9.044;2023-02-08T09:54:19;32.13;;;19.38;;
75689;SDS011;64303;53.118;9.044;2023-02-08T09:56:49;30.88;;;19.42;;
75689;SDS011;64303;53.118;9.044;2023-02-08T09:59:19;35.80;;;19.15;;
75689;SDS011;64303;53.118;9.044;2023-02-08T10:01:48;29.35;;;18.23;;
75689;SDS011;64303;53.118;9.044;2023-02-08T10:04:18;30.52;;;18.35;;
75689;SDS011;64303;53.118;9.044;2023-02-08T10:06:49;30.75;;;18.98;;
75689;SDS011;64303;53.118;9.044;2023-02-08T10:09:17;30.23;;;23.95;;
75689;SDS011;64303;53.118;9.044;2023-02-08T10:11:49;27.23;;;17.35;;
75689;SDS011;64303;53.118;9.044;2023-02-08T10:14:25;27.70;;;19.42;;
75689;SDS011;64303;53.118;9.044;2023-02-08T10:17:01;31.00;;;22.60;;
75689;SDS011;64303;53.118;9.044;2023-02-08T10:19:43;28.20;;;18.08;;
75689;SDS011;64303;53.118;9.044;2023-02-08T10:22:21;28.65;;;18.33;;
75689;SDS011;64303;53.118;9.044;2023-02-08T10:25:05;27.52;;;16.40;;
75689;SDS011;64303;53.118;9.044;2023-02-08T10:27:42;28.90;;;18.52;;
75689;SDS011;64303;53.118;9.044;2023-02-08T10:30:16;27.00;;;17.08;;
75689;SDS011;64303;53.118;9.044;2023-02-08T10:32:51;27.52;;;20.55;;
75689;SDS011;64303;53.118;9.044;2023-02-08T10:35:25;29.83;;;18.40;;
75689;SDS011;64303;53.118;9.044;2023-02-08T10:37:53;28.67;;;20.45;;
75689;SDS011;64303;53.118;9.044;2023-02-08T10:40:31;24.92;;;15.70;;
75689;SDS011;64303;53.118;9.044;2023-02-08T10:43:04;24.40;;;15.45;;
75689;SDS011;64303;53.118;9.044;2023-02-08T10:45:38;21.58;;;16.35;;
75689;SDS011;64303;53.118;9.044;2023-02-08T10:48:10;23.00;;;14.60;;
75689;SDS011;64303;53.118;9.044;2023-02-08T10:50:40;25.13;;;19.85;;
75689;SDS011;64303;53.118;9.044;2023-02-08T10:53:08;21.77;;;13.75;;
75689;SDS011;64303;53.118;9.044;2023-02-08T10:55:40;24.38;;;16.77;;
75689;SDS011;64303;53.118;9.044;2023-02-08T11:00:35;24.13;;;17.15;;
75689;SDS011;64303;53.118;9.044;2023-02-08T11:03:11;24.02;;;14.05;;
75689;SDS011;64303;53.118;9.044;2023-02-08T11:05:42;23.35;;;15.20;;
75689;SDS011;64303;53.118;9.044;2023-02-08T11:08:10;24.92;;;16.65;;
75689;SDS011;64303;53.118;9.044;2023-02-08T11:10:40;25.73;;;19.15;;
75689;SDS011;64303;53.118;9.044;2023-02-08T11:13:14;25.00;;;16.48;;
75689;SDS011;64303;53.118;9.044;2023-02-08T11:15:43;24.42;;;16.58;;
75689;SDS011;64303;53.118;9.044;2023-02-08T11:18:15;24.65;;;16.00;;
75689;SDS011;64303;53.118;9.044;2023-02-08T11:20:47;20.58;;;16.02;;
75689;SDS011;64303;53.118;9.044;2023-02-08T11:23:18;21.98;;;14.68;;
75689;SDS011;64303;53.118;9.044;2023-02-08T11:25:46;23.50;;;17.60;;
75689;SDS011;64303;53.118;9.044;2023-02-08T11:28:20;23.20;;;15.10;;
75689;SDS011;64303;53.118;9.044;2023-02-08T11:30:53;21.55;;;15.13;;
75689;SDS011;64303;53.118;9.044;2023-02-08T11:33:21;21.58;;;13.60;;
75689;SDS011;64303;53.118;9.044;2023-02-08T11:35:59;20.55;;;15.02;;
75689;SDS011;64303;53.118;9.044;2023-02-08T11:38:28;24.00;;;17.63;;
75689;SDS011;64303;53.118;9.044;2023-02-08T11:40:57;22.08;;;14.32;;
75689;SDS011;64303;53.118;9.044;2023-02-08T11:43:26;20.83;;;14.63;;
75689;SDS011;64303;53.118;9.044;2023-02-08T11:45:54;23.52;;;15.23;;
75689;SDS011;64303;53.118;9.044;2023-02-08T11:48:22;21.67;;;17.88;;
75689;SDS011;64303;53.118;9.044;2023-02-08T11:50:52;20.77;;;14.35;;
75689;SDS011;64303;53.118;9.044;2023-02-08T11:53:22;22.95;;;15.13;;
75689;SDS011;64303;53.118;9.044;2023-02-08T11:56:03;19.83;;;14.20;;
75689;SDS011;64303;53.118;9.044;2023-02-08T11:58:32;22.15;;;18.77;;
75689;SDS011;64303;53.118;9.044;2023-02-08T12:00:59;21.83;;;13.43;;
75689;SDS011;64303;53.118;9.044;2023-02-08T12:03:29;24.13;;;15.00;;
75689;SDS011;64303;53.118;9.044;2023-02-08T12:06:04;25.05;;;15.57;;
75689;SDS011;64303;53.118;9.044;2023-02-08T12:08:41;22.30;;;14.38;;
75689;SDS011;64303;53.118;9.044;2023-02-08T12:11:15;25.00;;;15.95;;
75689;SDS011;64303;53.118;9.044;2023-02-08T12:13:48;21.73;;;14.02;;
75689;SDS011;64303;53.118;9.044;2023-02-08T12:16:27;18.50;;;12.90;;
75689;SDS011;64303;53.118;9.044;2023-02-08T12:19:09;20.50;;;14.30;;
75689;SDS011;64303;53.118;9.044;2023-02-08T12:21:46;21.38;;;13.65;;
75689;SDS011;64303;53.118;9.044;2023-02-08T12:24:18;23.77;;;14.07;;
75689;SDS011;64303;53.118;9.044;2023-02-08T12:26:52;21.27;;;14.73;;
75689;SDS011;64303;53.118;9.044;2023-02-08T12:29:31;22.20;;;14.15;;
75689;SDS011;64303;53.118;9.044;2023-02-08T12:32:14;20.70;;;12.30;;
75689;SDS011;64303;53.118;9.044;2023-02-08T12:34:50;21.75;;;14.57;;
75689;SDS011;64303;53.118;9.044;2023-02-08T12:37:31;18.70;;;13.00;;
75689;SDS011;64303;53.118;9.044;2023-02-08T12:40:23;19.25;;;14.02;;
75689;SDS011;64303;53.118;9.044;2023-02-08T12:43:15;15.52;;;10.68;;
75689;SDS011;64303;53.118;9.044;2023-02-08T12:45:52;21.73;;;14.70;;
75689;SDS011;64303;53.118;9.044;2023-02-08T12:48:26;20.77;;;15.52;;
75689;SDS011;64303;53.118;9.044;2023-02-08T12:51:07;19.35;;;15.40;;
75689;SDS011;64303;53.118;9.044;2023-02-08T12:53:39;15.25;;;12.82;;
75689;SDS011;64303;53.118;9.044;2023-02-08T12:56:12;16.98;;;11.77;;
75689;SDS011;64303;53.118;9.044;2023-02-08T12:58:42;17.45;;;13.90;;
75689;SDS011;64303;53.118;9.044;2023-02-08T13:01:11;18.08;;;12.45;;
75689;SDS011;64303;53.118;9.044;2023-02-08T13:03:40;11.38;;;10.25;;
75689;SDS011;64303;53.118;9.044;2023-02-08T13:06:12;13.48;;;11.18;;
75689;SDS011;64303;53.118;9.044;2023-02-08T13:08:43;17.40;;;11.43;;
75689;SDS011;64303;53.118;9.044;2023-02-08T13:11:16;19.67;;;13.55;;
75689;SDS011;64303;53.118;9.044;2023-02-08T13:13:46;15.63;;;11.48;;
75689;SDS011;64303;53.118;9.044;2023-02-08T13:16:20;17.52;;;11.98;;
75689;SDS011;64303;53.118;9.044;2023-02-08T13:18:49;17.20;;;12.43;;
75689;SDS011;64303;53.118;9.044;2023-02-08T13:21:19;21.10;;;13.60;;
75689;SDS011;64303;53.118;9.044;2023-02-08T13:23:48;20.52;;;17.45;;
75689;SDS011;64303;53.118;9.044;2023-02-08T13:26:17;16.50;;;11.25;;
75689;SDS011;64303;53.118;9.044;2023-02-08T13:28:49;33.05;;;22.02;;
75689;SDS011;64303;53.118;9.044;2023-02-08T13:31:17;24.73;;;17.30;;
75689;SDS011;64303;53.118;9.044;2023-02-08T13:33:46;18.85;;;13.90;;
75689;SDS011;64303;53.118;9.044;2023-02-08T13:36:19;16.58;;;14.27;;
75689;SDS011;64303;53.118;9.044;2023-02-08T13:38:48;21.85;;;14.02;;
75689;SDS011;64303;53.118;9.044;2023-02-08T13:41:17;17.25;;;13.60;;
75689;SDS011;64303;53.118;9.044;2023-02-08T13:43:46;16.35;;;13.95;;
75689;SDS011;64303;53.118;9.044;2023-02-08T13:46:16;18.58;;;13.77;;
75689;SDS011;64303;53.118;9.044;2023-02-08T13:48:44;19.02;;;13.18;;
75689;SDS011;64303;53.118;9.044;2023-02-08T13:54:22;19.50;;;13.75;;
75689;SDS011;64303;53.118;9.044;2023-02-08T13:56:51;20.25;;;14.88;;
75689;SDS011;64303;53.118;9.044;2023-02-08T13:59:25;19.30;;;11.80;;
75689;SDS011;64303;53.118;9.044;2023-02-08T14:04:54;19.27;;;13.25;;
75689;SDS011;64303;53.118;9.044;2023-02-08T14:07:32;18.10;;;13.18;;
75689;SDS011;64303;53.118;9.044;2023-02-08T14:10:06;21.05;;;15.50;;
75689;SDS011;64303;53.118;9.044;2023-02-08T14:12:45;17.90;;;12.55;;
75689;SDS011;64303;53.118;9.044;2023-02-08T14:15:26;18.73;;;13.00;;
75689;SDS011;64303;53.118;9.044;2023-02-08T14:17:58;17.23;;;12.05;;
75689;SDS011;64303;53.118;9.044;2023-02-08T14:20:27;17.30;;;11.98;;
75689;SDS011;64303;53.118;9.044;2023-02-08T14:22:57;17.50;;;13.13;;
75689;SDS011;64303;53.118;9.044;2023-02-08T14:25:26;19.00;;;12.23;;
75689;SDS011;64303;53.118;9.044;2023-02-08T14:27:56;18.65;;;12.55;;
75689;SDS011;64303;53.118;9.044;2023-02-08T14:30:24;19.63;;;13.82;;
75689;SDS011;64303;53.118;9.044;2023-02-08T14:32:53;18.17;;;14.05;;
75689;SDS011;64303;53.118;9.044;2023-02-08T14:35:37;16.20;;;10.52;;
75689;SDS011;64303;53.118;9.044;2023-02-08T14:41:01;16.20;;;13.05;;
75689;SDS011;64303;53.118;9.044;2023-02-08T14:43:31;14.85;;;12.95;;
75689;SDS011;64303;53.118;9.044;2023-02-08T14:49:04;21.42;;;17.60;;
75689;SDS011;64303;53.118;9.044;2023-02-08T14:51:33;20.20;;;12.75;;
75689;SDS011;64303;53.118;9.044;2023-02-08T14:54:03;20.15;;;14.00;;
75689;SDS011;64303;53.118;9.044;2023-02-08T14:56:42;19.83;;;12.57;;
75689;SDS011;64303;53.118;9.044;2023-02-08T14:59:15;19.77;;;11.63;;
75689;SDS011;64303;53.118;9.044;2023-02-08T15:01:44;18.85;;;11.20;;
75689;SDS011;64303;53.118;9.044;2023-02-08T15:04:13;19.15;;;12.07;;
75689;SDS011;64303;53.118;9.044;2023-02-08T15:09:35;14.57;;;11.35;;